Time;durP1;ratioP1;P1;durP2;ratioP2;P2;SDS_P1;SDS_P2;PMS_P1;PMS_P2;Temp;Humidity;BMP_temperature;BMP_pressure;BME280_temperature;BME280_humidity;BME280_pressure;Samples;Min_cycle;Max_cycle;Signal;HPM_P1;HPM_P2
2022/06/04 00:00:35;;;;;;;22.00;6.68;;;;;;;;;;4968466;28;20038;-86
2022/06/04 00:03:01;;;;;;;20.65;6.63;;;;;;;;;;4970036;28;20054;-87
2022/06/04 00:05:29;;;;;;;24.00;6.68;;;;;;;;;;4965144;28;20027;-86
2022/06/04 00:07:55;;;;;;;14.85;6.20;;;;;;;;;;4971054;28;20077;-87
2022/06/04 00:15:56;;;;;;;15.63;6.30;;;;;;;;;;4976029;28;20046;-87
2022/06/04 00:18:22;;;;;;;13.27;7.47;;;;;;;;;;4966004;28;20042;-86
2022/06/04 00:20:49;;;;;;;26.63;7.95;;;;;;;;;;4971719;28;20467;-86
2022/06/04 00:23:16;;;;;;;20.52;6.78;;;;;;;;;;4968398;28;20445;-87
2022/06/04 00:25:43;;;;;;;14.85;7.22;;;;;;;;;;4963801;28;20030;-86
2022/06/04 00:28:10;;;;;;;18.48;7.75;;;;;;;;;;4967766;28;20461;-86
2022/06/04 00:30:37;;;;;;;13.38;6.57;;;;;;;;;;4966437;28;20026;-86
2022/06/04 00:33:03;;;;;;;18.92;7.35;;;;;;;;;;4977675;28;20041;-86
2022/06/04 00:35:29;;;;;;;13.88;7.15;;;;;;;;;;4979156;28;20018;-86
2022/06/04 00:37:55;;;;;;;19.02;6.72;;;;;;;;;;4968066;28;20145;-86
2022/06/04 00:40:33;;;;;;;18.30;6.90;;;;;;;;;;4971586;28;20031;-85
2022/06/04 00:42:59;;;;;;;15.40;6.65;;;;;;;;;;4973323;28;20109;-86
2022/06/04 00:45:28;;;;;;;20.73;8.50;;;;;;;;;;4964637;28;20741;-86
2022/06/04 00:47:54;;;;;;;17.02;7.38;;;;;;;;;;4967560;28;20050;-86
2022/06/04 00:50:22;;;;;;;20.65;7.63;;;;;;;;;;4968431;28;20023;-86
2022/06/04 00:52:49;;;;;;;13.82;7.28;;;;;;;;;;4967263;28;20045;-85
2022/06/04 00:55:16;;;;;;;16.10;7.88;;;;;;;;;;4957859;28;20065;-87
2022/06/04 00:57:48;;;;;;;20.55;7.75;;;;;;;;;;4955099;28;20042;-86
2022/06/04 01:00:17;;;;;;;16.05;8.02;;;;;;;;;;4962359;28;20469;-86
2022/06/04 01:02:43;;;;;;;17.02;8.18;;;;;;;;;;4981017;28;20042;-86
2022/06/04 01:05:18;;;;;;;18.40;7.50;;;;;;;;;;4959043;28;20085;-86
2022/06/04 01:07:48;;;;;;;12.60;7.53;;;;;;;;;;4963492;28;20042;-86
2022/06/04 01:10:26;;;;;;;28.23;7.75;;;;;;;;;;4958944;28;20039;-86
2022/06/04 01:12:59;;;;;;;17.50;7.82;;;;;;;;;;4964464;28;20030;-86
2022/06/04 01:15:40;;;;;;;18.92;7.05;;;;;;;;;;4969153;28;20130;-86
2022/06/04 01:18:24;;;;;;;29.15;7.40;;;;;;;;;;4967193;28;20034;-86
2022/06/04 01:20:53;;;;;;;20.27;7.57;;;;;;;;;;4963278;28;20466;-87
2022/06/04 01:23:25;;;;;;;20.90;6.90;;;;;;;;;;4964431;28;20038;-86
2022/06/04 01:26:10;;;;;;;21.95;7.55;;;;;;;;;;4954972;28;20031;-87
2022/06/04 01:28:43;;;;;;;22.10;7.22;;;;;;;;;;4951628;28;20049;-86
2022/06/04 01:31:12;;;;;;;16.58;7.40;;;;;;;;;;4967608;28;20030;-87
2022/06/04 01:33:42;;;;;;;17.98;7.70;;;;;;;;;;4990821;28;20422;-86
2022/06/04 01:36:08;;;;;;;14.35;7.38;;;;;;;;;;4967207;28;20121;-86
2022/06/04 01:38:37;;;;;;;19.25;7.55;;;;;;;;;;4965831;28;20066;-85
2022/06/04 01:41:07;;;;;;;18.67;7.82;;;;;;;;;;4962725;28;20070;-87
2022/06/04 01:43:37;;;;;;;18.35;7.70;;;;;;;;;;4969875;28;20026;-87
2022/06/04 01:46:23;;;;;;;19.98;7.93;;;;;;;;;;4960251;28;20502;-86
2022/06/04 01:48:52;;;;;;;14.82;7.18;;;;;;;;;;4957914;28;20040;-87
2022/06/04 01:51:23;;;;;;;20.13;7.03;;;;;;;;;;4958766;28;20086;-87
2022/06/04 01:53:51;;;;;;;15.73;8.20;;;;;;;;;;4959649;28;20129;-87
2022/06/04 01:56:20;;;;;;;18.20;7.07;;;;;;;;;;4957915;28;20121;-85
2022/06/04 01:58:52;;;;;;;13.88;6.75;;;;;;;;;;4959549;28;20041;-86
2022/06/04 02:01:20;;;;;;;19.70;8.13;;;;;;;;;;4961203;28;20051;-85
2022/06/04 02:03:53;;;;;;;19.77;8.05;;;;;;;;;;4958757;28;20054;-85
2022/06/04 02:06:24;;;;;;;17.00;7.15;;;;;;;;;;4961317;28;20042;-85
2022/06/04 02:09:03;;;;;;;28.83;8.35;;;;;;;;;;4963205;28;20035;-86
2022/06/04 02:11:30;;;;;;;17.38;7.07;;;;;;;;;;4958366;28;20149;-85
2022/06/04 02:13:59;;;;;;;18.25;6.97;;;;;;;;;;4963187;28;20038;-86
2022/06/04 02:16:25;;;;;;;19.10;7.35;;;;;;;;;;4958946;28;20029;-85
2022/06/04 02:18:51;;;;;;;17.17;6.85;;;;;;;;;;4967476;28;20109;-85
2022/06/04 02:21:18;;;;;;;18.25;6.93;;;;;;;;;;4964026;28;20057;-85
2022/06/04 02:23:44;;;;;;;20.13;7.35;;;;;;;;;;4962581;28;20023;-85
2022/06/04 02:26:10;;;;;;;19.50;6.75;;;;;;;;;;4977208;28;20043;-85
2022/06/04 02:28:36;;;;;;;19.27;6.68;;;;;;;;;;4964290;28;20037;-85
2022/06/04 02:31:21;;;;;;;15.70;8.20;;;;;;;;;;4974993;28;20509;-85
2022/06/04 02:33:47;;;;;;;12.98;6.43;;;;;;;;;;4961519;28;20042;-85
2022/06/04 02:36:19;;;;;;;16.25;6.97;;;;;;;;;;4965901;28;20027;-85
2022/06/04 02:38:47;;;;;;;20.63;7.25;;;;;;;;;;4961798;28;20442;-85
2022/06/04 02:41:21;;;;;;;16.50;7.45;;;;;;;;;;4967375;28;20470;-86
2022/06/04 02:43:57;;;;;;;22.27;7.05;;;;;;;;;;4970147;28;20029;-86
2022/06/04 02:46:29;;;;;;;8.70;6.13;;;;;;;;;;4957798;28;20038;-85
2022/06/04 02:49:03;;;;;;;14.07;6.35;;;;;;;;;;4962262;28;20031;-85
2022/06/04 02:51:34;;;;;;;22.15;6.85;;;;;;;;;;4976688;28;20692;-85
2022/06/04 02:54:11;;;;;;;17.15;6.30;;;;;;;;;;4964483;28;20390;-85
2022/06/04 02:56:38;;;;;;;12.48;7.45;;;;;;;;;;4960021;28;20114;-86
2022/06/04 02:59:07;;;;;;;17.58;6.93;;;;;;;;;;4978035;28;20450;-85
2022/06/04 03:01:37;;;;;;;9.88;5.90;;;;;;;;;;4963690;28;20022;-85
2022/06/04 03:04:04;;;;;;;13.95;6.47;;;;;;;;;;4955018;28;20035;-86
2022/06/04 03:06:31;;;;;;;21.23;6.28;;;;;;;;;;4959191;28;21041;-86
2022/06/04 03:08:57;;;;;;;16.23;6.22;;;;;;;;;;4960932;28;20050;-85
2022/06/04 03:11:23;;;;;;;11.70;5.75;;;;;;;;;;4965952;28;20026;-85
2022/06/04 03:13:49;;;;;;;15.45;5.20;;;;;;;;;;4966385;28;20069;-85
2022/06/04 03:16:16;;;;;;;16.90;5.25;;;;;;;;;;4962716;28;20224;-85
2022/06/04 03:18:43;;;;;;;17.88;5.72;;;;;;;;;;4986269;28;20026;-86
2022/06/04 03:21:10;;;;;;;9.63;6.15;;;;;;;;;;4967501;28;20051;-86
2022/06/04 03:23:37;;;;;;;14.55;5.13;;;;;;;;;;4983143;28;20415;-86
2022/06/04 03:26:03;;;;;;;13.25;5.22;;;;;;;;;;4984637;28;20030;-86
2022/06/04 03:28:29;;;;;;;12.23;4.78;;;;;;;;;;4970811;28;20358;-85
2022/06/04 03:30:55;;;;;;;9.48;4.72;;;;;;;;;;4966704;28;20022;-85
2022/06/04 03:33:21;;;;;;;16.48;5.50;;;;;;;;;;4964031;28;21180;-85
2022/06/04 03:35:47;;;;;;;10.23;4.55;;;;;;;;;;4966982;28;20034;-86
2022/06/04 03:38:13;;;;;;;13.30;5.38;;;;;;;;;;4970023;28;20038;-86
2022/06/04 03:40:39;;;;;;;14.07;5.45;;;;;;;;;;4969433;28;20141;-86
2022/06/04 03:43:05;;;;;;;12.27;5.03;;;;;;;;;;4983031;28;20030;-87
2022/06/04 03:45:31;;;;;;;12.95;4.43;;;;;;;;;;4976274;28;20037;-86
2022/06/04 03:47:58;;;;;;;6.28;4.25;;;;;;;;;;4963182;28;20058;-85
2022/06/04 03:50:29;;;;;;;10.90;4.72;;;;;;;;;;4981569;28;20212;-86
2022/06/04 03:52:55;;;;;;;8.63;4.60;;;;;;;;;;4980047;28;20018;-85
2022/06/04 03:55:22;;;;;;;8.93;4.60;;;;;;;;;;4969266;28;20035;-86
2022/06/04 03:57:55;;;;;;;11.93;4.70;;;;;;;;;;4964388;28;20037;-87
2022/06/04 04:00:29;;;;;;;8.70;4.47;;;;;;;;;;4962877;28;20034;-86
2022/06/04 04:03:04;;;;;;;14.55;4.65;;;;;;;;;;4963772;28;20031;-86
2022/06/04 04:05:32;;;;;;;10.13;5.05;;;;;;;;;;4977189;28;20057;-85
2022/06/04 04:07:59;;;;;;;13.80;5.38;;;;;;;;;;4971551;28;20035;-85
2022/06/04 04:10:26;;;;;;;10.85;4.82;;;;;;;;;;4959869;28;20046;-85
2022/06/04 04:12:53;;;;;;;9.98;4.20;;;;;;;;;;4969066;28;20037;-86
2022/06/04 04:15:20;;;;;;;10.38;4.85;;;;;;;;;;4964295;28;20045;-86
2022/06/04 04:17:47;;;;;;;7.13;3.95;;;;;;;;;;4982940;28;20022;-86
2022/06/04 04:20:16;;;;;;;9.07;4.85;;;;;;;;;;4981142;28;20477;-85
2022/06/04 04:22:42;;;;;;;8.93;4.53;;;;;;;;;;4967384;28;20082;-86
2022/06/04 04:25:09;;;;;;;13.70;4.18;;;;;;;;;;4959241;28;20037;-85
2022/06/04 04:27:36;;;;;;;10.38;4.07;;;;;;;;;;4970344;28;20398;-85
2022/06/04 04:30:04;;;;;;;14.70;5.20;;;;;;;;;;4956855;28;20035;-85
2022/06/04 04:32:31;;;;;;;8.48;4.80;;;;;;;;;;4978487;28;20046;-85
2022/06/04 04:34:57;;;;;;;8.38;3.95;;;;;;;;;;4964654;28;20026;-86
2022/06/04 04:37:24;;;;;;;6.53;3.80;;;;;;;;;;4963487;28;20371;-85
2022/06/04 04:39:50;;;;;;;13.13;4.65;;;;;;;;;;4963858;28;20035;-86
2022/06/04 04:42:16;;;;;;;6.22;4.03;;;;;;;;;;4966961;28;20140;-85
2022/06/04 04:44:42;;;;;;;12.10;4.30;;;;;;;;;;4963560;28;20096;-86
2022/06/04 04:47:08;;;;;;;9.40;4.47;;;;;;;;;;4968811;28;20453;-86
2022/06/04 04:49:34;;;;;;;10.98;4.18;;;;;;;;;;4965021;28;20546;-86
2022/06/04 04:52:01;;;;;;;8.80;4.22;;;;;;;;;;4965569;28;20034;-86
2022/06/04 04:54:27;;;;;;;10.27;4.00;;;;;;;;;;4968866;28;20125;-86
2022/06/04 04:56:53;;;;;;;7.07;4.00;;;;;;;;;;4963759;28;20534;-86
2022/06/04 04:59:19;;;;;;;5.50;3.47;;;;;;;;;;4959356;28;20428;-86
2022/06/04 05:01:45;;;;;;;12.10;3.85;;;;;;;;;;4962920;28;20037;-86
2022/06/04 05:04:11;;;;;;;10.27;3.65;;;;;;;;;;4965131;28;20038;-86
2022/06/04 05:06:38;;;;;;;9.02;4.20;;;;;;;;;;4966634;28;20030;-86
2022/06/04 05:09:04;;;;;;;8.75;4.15;;;;;;;;;;4979422;28;20454;-87
2022/06/04 05:11:32;;;;;;;8.30;3.60;;;;;;;;;;4978295;28;20118;-87
2022/06/04 05:13:59;;;;;;;7.78;3.95;;;;;;;;;;4965678;28;20034;-86
2022/06/04 05:16:26;;;;;;;9.73;3.97;;;;;;;;;;4975046;28;20062;-87
2022/06/04 05:18:52;;;;;;;9.43;4.15;;;;;;;;;;4965937;28;20044;-86
2022/06/04 05:21:39;;;;;;;7.95;4.07;;;;;;;;;;4961691;28;20046;-87
2022/06/04 05:24:05;;;;;;;7.72;3.83;;;;;;;;;;4973625;28;20549;-87
2022/06/04 05:26:31;;;;;;;9.45;3.70;;;;;;;;;;4976631;28;20092;-87
2022/06/04 05:28:57;;;;;;;7.78;3.80;;;;;;;;;;4978628;28;20042;-87
2022/06/04 05:31:24;;;;;;;10.63;4.35;;;;;;;;;;4958878;28;20038;-87
2022/06/04 05:33:50;;;;;;;6.22;3.88;;;;;;;;;;4975528;28;20029;-87
2022/06/04 05:36:16;;;;;;;9.40;3.92;;;;;;;;;;4981789;28;20030;-86
2022/06/04 05:38:43;;;;;;;10.50;3.70;;;;;;;;;;4980152;28;20714;-87
2022/06/04 05:41:10;;;;;;;7.47;3.45;;;;;;;;;;4980032;28;20034;-86
2022/06/04 05:43:39;;;;;;;5.80;3.50;;;;;;;;;;4970141;28;20498;-87
2022/06/04 05:46:06;;;;;;;5.18;3.33;;;;;;;;;;4963046;28;20505;-87
2022/06/04 05:48:33;;;;;;;10.50;4.07;;;;;;;;;;4944360;28;20097;-87
2022/06/04 05:50:59;;;;;;;9.32;3.75;;;;;;;;;;4955427;28;20023;-86
2022/06/04 05:53:26;;;;;;;6.43;3.40;;;;;;;;;;4945858;28;20026;-87
2022/06/04 05:55:52;;;;;;;5.53;3.85;;;;;;;;;;4955861;28;20031;-87
2022/06/04 05:58:18;;;;;;;11.38;4.20;;;;;;;;;;4959335;28;20130;-87
2022/06/04 06:00:45;;;;;;;7.75;3.53;;;;;;;;;;4941328;28;20046;-87
2022/06/04 06:03:11;;;;;;;9.68;4.82;;;;;;;;;;4944708;28;20081;-87
2022/06/04 06:05:41;;;;;;;8.50;3.90;;;;;;;;;;4945310;28;20125;-86
2022/06/04 06:08:07;;;;;;;5.25;3.42;;;;;;;;;;4947323;28;20441;-86
2022/06/04 06:10:38;;;;;;;9.32;3.60;;;;;;;;;;4946731;28;20554;-85
2022/06/04 06:13:05;;;;;;;8.52;3.50;;;;;;;;;;4960980;28;20462;-86
2022/06/04 06:15:31;;;;;;;5.30;3.35;;;;;;;;;;4940640;28;20074;-87
2022/06/04 06:17:57;;;;;;;7.95;3.25;;;;;;;;;;4945103;28;20490;-88
2022/06/04 06:20:23;;;;;;;8.73;3.85;;;;;;;;;;4958718;28;20498;-86
2022/06/04 06:22:49;;;;;;;6.85;3.90;;;;;;;;;;4960710;28;20417;-88
2022/06/04 06:25:16;;;;;;;6.78;3.53;;;;;;;;;;4944733;28;20482;-87
2022/06/04 06:27:43;;;;;;;6.75;3.22;;;;;;;;;;4945102;28;20503;-87
2022/06/04 06:30:09;;;;;;;5.85;3.10;;;;;;;;;;4942631;28;20031;-88
2022/06/04 06:32:36;;;;;;;4.30;3.50;;;;;;;;;;4946858;28;20498;-87
2022/06/04 06:35:03;;;;;;;7.30;3.38;;;;;;;;;;4938550;28;20394;-87
2022/06/04 06:37:29;;;;;;;5.25;2.92;;;;;;;;;;4963525;28;20533;-88
2022/06/04 06:39:55;;;;;;;6.05;3.75;;;;;;;;;;4954442;28;20045;-87
2022/06/04 06:42:22;;;;;;;8.27;3.45;;;;;;;;;;4945212;28;20546;-87
2022/06/04 06:44:48;;;;;;;6.47;3.22;;;;;;;;;;4945071;28;20110;-88
2022/06/04 06:47:15;;;;;;;6.65;3.47;;;;;;;;;;4949526;28;20042;-87
2022/06/04 06:49:42;;;;;;;6.70;3.60;;;;;;;;;;4940331;28;20043;-87
2022/06/04 06:52:09;;;;;;;5.53;3.90;;;;;;;;;;4944444;28;20030;-87
2022/06/04 06:54:36;;;;;;;4.30;2.92;;;;;;;;;;4938277;28;20039;-86
2022/06/04 06:57:04;;;;;;;4.32;2.45;;;;;;;;;;4940593;28;20027;-87
2022/06/04 06:59:30;;;;;;;4.93;3.58;;;;;;;;;;4936084;28;20065;-87
2022/06/04 07:01:58;;;;;;;8.25;3.53;;;;;;;;;;4955191;28;20379;-88
2022/06/04 07:04:28;;;;;;;8.63;3.40;;;;;;;;;;4942827;28;20039;-86
2022/06/04 07:06:57;;;;;;;6.10;3.42;;;;;;;;;;4940430;28;20758;-87
2022/06/04 07:09:34;;;;;;;7.65;3.50;;;;;;;;;;4943712;28;20331;-87
2022/06/04 07:12:00;;;;;;;9.30;3.40;;;;;;;;;;4940734;28;20668;-87
2022/06/04 07:14:27;;;;;;;7.07;3.10;;;;;;;;;;4945761;28;20518;-87
2022/06/04 07:16:53;;;;;;;9.20;3.38;;;;;;;;;;4944767;28;20037;-87
2022/06/04 07:19:21;;;;;;;5.15;2.83;;;;;;;;;;4948792;28;20066;-87
2022/06/04 07:21:47;;;;;;;7.43;3.35;;;;;;;;;;4948253;28;20125;-88
2022/06/04 07:24:14;;;;;;;10.27;3.38;;;;;;;;;;4942384;28;20028;-88
2022/06/04 07:26:41;;;;;;;4.80;2.92;;;;;;;;;;4965871;28;20028;-88
2022/06/04 07:29:07;;;;;;;5.30;2.80;;;;;;;;;;4942469;28;20035;-88
2022/06/04 07:31:33;;;;;;;6.22;3.20;;;;;;;;;;4946275;28;20031;-88
2022/06/04 07:33:59;;;;;;;9.45;3.20;;;;;;;;;;4948968;28;20035;-86
2022/06/04 07:36:27;;;;;;;5.95;3.17;;;;;;;;;;4941401;28;20327;-87
2022/06/04 07:38:53;;;;;;;5.90;3.03;;;;;;;;;;4937666;28;20027;-87
2022/06/04 07:41:21;;;;;;;4.72;2.83;;;;;;;;;;4942144;28;20503;-87
2022/06/04 07:43:47;;;;;;;5.60;3.60;;;;;;;;;;4937513;28;20027;-87
2022/06/04 07:46:13;;;;;;;8.00;2.92;;;;;;;;;;4944148;28;20039;-87
2022/06/04 07:48:39;;;;;;;7.45;2.70;;;;;;;;;;4957413;28;20042;-87
2022/06/04 07:51:06;;;;;;;5.68;2.85;;;;;;;;;;4959180;28;20467;-88
2022/06/04 07:53:32;;;;;;;7.18;2.78;;;;;;;;;;4960394;28;20514;-88
2022/06/04 07:55:58;;;;;;;4.15;2.53;;;;;;;;;;4965571;28;20132;-87
2022/06/04 07:58:24;;;;;;;4.18;3.10;;;;;;;;;;4968422;28;20158;-87
2022/06/04 08:00:57;;;;;;;7.13;3.22;;;;;;;;;;4964567;28;20405;-88
2022/06/04 08:03:23;;;;;;;3.08;2.45;;;;;;;;;;4979368;28;20486;-88
2022/06/04 08:05:52;;;;;;;7.03;3.13;;;;;;;;;;4986536;28;20216;-87
2022/06/04 08:08:22;;;;;;;2.75;2.55;;;;;;;;;;4966078;28;20039;-87
2022/06/04 08:10:54;;;;;;;4.55;2.75;;;;;;;;;;4971281;28;20817;-88
2022/06/04 08:15:49;;;;;;;5.00;2.70;;;;;;;;;;4977536;28;20117;-87
2022/06/04 08:18:16;;;;;;;4.45;2.95;;;;;;;;;;4959391;28;20682;-89
2022/06/04 08:20:43;;;;;;;9.95;2.70;;;;;;;;;;4976587;28;20034;-88
2022/06/04 08:23:09;;;;;;;4.97;2.50;;;;;;;;;;4959889;28;20049;-87
2022/06/04 08:25:43;;;;;;;5.22;2.80;;;;;;;;;;4965359;28;20027;-87
2022/06/04 08:28:10;;;;;;;4.63;3.15;;;;;;;;;;4960363;28;20619;-87
2022/06/04 08:30:36;;;;;;;6.43;2.85;;;;;;;;;;4964880;28;20102;-86
2022/06/04 08:33:03;;;;;;;9.02;3.17;;;;;;;;;;4966480;28;20524;-87
2022/06/04 08:35:29;;;;;;;4.97;2.60;;;;;;;;;;4962852;28;20726;-88
2022/06/04 08:37:55;;;;;;;3.90;2.30;;;;;;;;;;4966114;28;20106;-88
2022/06/04 08:40:42;;;;;;;4.50;2.50;;;;;;;;;;4958074;28;20030;-87
2022/06/04 08:43:32;;;;;;;7.00;3.85;;;;;;;;;;4966181;28;20074;-87
2022/06/04 08:45:59;;;;;;;5.57;2.80;;;;;;;;;;4956045;28;20541;-85
2022/06/04 08:48:37;;;;;;;4.45;2.65;;;;;;;;;;4978975;28;20314;-87
2022/06/04 08:51:18;;;;;;;3.90;2.80;;;;;;;;;;4964543;28;20023;-85
2022/06/04 08:53:45;;;;;;;4.60;2.65;;;;;;;;;;4963898;28;20069;-86
2022/06/04 08:59:15;;;;;;;6.82;3.00;;;;;;;;;;4971513;28;20557;-86
2022/06/04 09:01:43;;;;;;;4.32;3.00;;;;;;;;;;4957327;28;20034;-86
2022/06/04 09:04:22;;;;;;;4.18;2.30;;;;;;;;;;4970696;28;20425;-87
2022/06/04 09:07:02;;;;;;;4.00;2.22;;;;;;;;;;4966499;28;20489;-85
2022/06/04 09:09:38;;;;;;;5.13;2.38;;;;;;;;;;4973693;28;20038;-86
2022/06/04 09:12:22;;;;;;;7.85;2.70;;;;;;;;;;4956590;28;20043;-86
2022/06/04 09:15:06;;;;;;;4.30;2.70;;;;;;;;;;4958887;28;20023;-87
2022/06/04 09:17:36;;;;;;;7.05;2.60;;;;;;;;;;4971488;28;20135;-87
2022/06/04 09:20:03;;;;;;;4.43;2.80;;;;;;;;;;4972048;28;20474;-87
2022/06/04 09:22:35;;;;;;;5.55;2.40;;;;;;;;;;4958645;28;20046;-88
2022/06/04 09:25:01;;;;;;;4.07;3.03;;;;;;;;;;4978669;28;20081;-87
2022/06/04 09:27:35;;;;;;;5.43;2.63;;;;;;;;;;4963537;28;20364;-88
2022/06/04 09:30:05;;;;;;;6.03;2.75;;;;;;;;;;4952447;28;20529;-89
2022/06/04 09:32:50;;;;;;;4.63;2.40;;;;;;;;;;4965478;28;20053;-86
2022/06/04 09:35:17;;;;;;;4.22;2.63;;;;;;;;;;4979861;28;20105;-86
2022/06/04 09:37:44;;;;;;;3.33;2.50;;;;;;;;;;4976984;28;20029;-87
2022/06/04 09:40:19;;;;;;;12.98;2.63;;;;;;;;;;4975341;28;20031;-90
2022/06/04 09:42:45;;;;;;;3.97;2.38;;;;;;;;;;4963707;28;20030;-92
2022/06/04 09:45:20;;;;;;;7.78;3.50;;;;;;;;;;4979374;28;20683;-92
2022/06/04 09:47:54;;;;;;;5.85;3.15;;;;;;;;;;4980718;28;20048;-91
2022/06/04 09:50:26;;;;;;;6.32;2.60;;;;;;;;;;4986281;28;20022;-90
2022/06/04 09:53:11;;;;;;;4.53;2.67;;;;;;;;;;4961306;28;20193;-89
2022/06/04 09:55:39;;;;;;;7.47;2.50;;;;;;;;;;4969271;28;20067;-91
2022/06/04 09:58:23;;;;;;;4.88;2.55;;;;;;;;;;4959420;28;20030;-92
2022/06/04 10:00:58;;;;;;;5.43;3.97;;;;;;;;;;4962908;28;20023;-91
2022/06/04 10:03:24;;;;;;;5.63;2.58;;;;;;;;;;4967022;28;20100;-89
2022/06/04 10:05:52;;;;;;;6.90;2.72;;;;;;;;;;4969276;28;20034;-91
2022/06/04 10:08:22;;;;;;;4.50;2.55;;;;;;;;;;4962632;28;20038;-92
2022/06/04 10:10:48;;;;;;;3.05;2.67;;;;;;;;;;4961118;28;20039;-92
2022/06/04 10:16:24;;;;;;;6.57;3.05;;;;;;;;;;4980631;28;20501;-90
2022/06/04 10:18:50;;;;;;;;;;;;;;;;;;4971960;28;20050;-92
2022/06/04 10:21:16;;;;;;;;;;;;;;;;;;4966435;28;19921;-93
2022/06/04 10:23:46;;;;;;;5.68;2.63;;;;;;;;;;4962817;28;19913;-92
2022/06/04 10:26:29;;;;;;;4.43;2.95;;;;;;;;;;4971456;28;20145;-93
2022/06/04 10:29:01;;;;;;;6.95;3.10;;;;;;;;;;4964418;28;20478;-93
2022/06/04 10:31:30;;;;;;;6.70;2.80;;;;;;;;;;4970047;28;20144;-92
2022/06/04 10:34:02;;;;;;;6.00;3.13;;;;;;;;;;4968928;28;20031;-90
2022/06/04 10:36:34;;;;;;;9.10;2.70;;;;;;;;;;4982469;28;20043;-91
2022/06/04 10:39:08;;;;;;;4.55;2.80;;;;;;;;;;4963280;28;20390;-92
2022/06/04 10:41:42;;;;;;;5.60;3.03;;;;;;;;;;4964981;28;20030;-91
2022/06/04 10:44:08;;;;;;;4.68;3.22;;;;;;;;;;4967809;28;20041;-91
2022/06/04 10:46:34;;;;;;;6.05;2.78;;;;;;;;;;4967150;28;20232;-91
2022/06/04 10:49:03;;;;;;;5.53;3.20;;;;;;;;;;4954308;28;20096;-90
2022/06/04 10:51:40;;;;;;;4.90;2.90;;;;;;;;;;4950530;28;20030;-91
2022/06/04 10:54:25;;;;;;;3.97;2.53;;;;;;;;;;4946272;28;20031;-91
2022/06/04 10:56:54;;;;;;;3.17;2.45;;;;;;;;;;4952260;28;20026;-93
2022/06/04 10:59:24;;;;;;;4.00;2.75;;;;;;;;;;4960215;28;20062;-90
2022/06/04 11:01:55;;;;;;;5.63;2.70;;;;;;;;;;4947672;28;20390;-93
2022/06/04 11:04:26;;;;;;;7.22;3.40;;;;;;;;;;4952329;28;20019;-92
2022/06/04 11:06:56;;;;;;;2.35;2.10;;;;;;;;;;4950485;28;20027;-91
2022/06/04 11:09:26;;;;;;;5.60;2.35;;;;;;;;;;4953079;28;21495;-90
2022/06/04 11:11:55;;;;;;;5.63;2.95;;;;;;;;;;4953879;28;20117;-92
2022/06/04 11:14:24;;;;;;;5.80;2.78;;;;;;;;;;4979875;28;20098;-89
2022/06/04 11:16:56;;;;;;;6.88;2.90;;;;;;;;;;4960204;28;20056;-91
2022/06/04 11:19:25;;;;;;;3.88;2.67;;;;;;;;;;4957795;28;20027;-92
2022/06/04 11:21:54;;;;;;;7.07;3.13;;;;;;;;;;4957559;28;20104;-91
2022/06/04 11:24:29;;;;;;;6.07;2.92;;;;;;;;;;4965703;28;20031;-90
2022/06/04 11:27:01;;;;;;;7.20;3.10;;;;;;;;;;4956159;28;20027;-92
2022/06/04 11:29:27;;;;;;;6.70;2.83;;;;;;;;;;4950837;28;20050;-91
2022/06/04 11:32:08;;;;;;;6.32;3.47;;;;;;;;;;4942413;28;20229;-92
2022/06/04 11:34:52;;;;;;;7.78;3.30;;;;;;;;;;4950090;28;20023;-92
2022/06/04 11:37:24;;;;;;;4.65;2.90;;;;;;;;;;4948975;28;20035;-91
2022/06/04 11:40:05;;;;;;;4.93;3.03;;;;;;;;;;4968108;28;20031;-92
2022/06/04 11:42:51;;;;;;;8.90;3.40;;;;;;;;;;4941751;28;20042;-92
2022/06/04 11:45:23;;;;;;;7.00;4.00;;;;;;;;;;4945312;28;20075;-91
2022/06/04 11:48:15;;;;;;;5.50;2.88;;;;;;;;;;4955872;28;20047;-90
2022/06/04 11:50:58;;;;;;;5.85;3.00;;;;;;;;;;4972342;28;20031;-91
2022/06/04 11:53:30;;;;;;;5.68;3.38;;;;;;;;;;4978862;28;20042;-90
2022/06/04 11:56:03;;;;;;;5.90;2.90;;;;;;;;;;4989757;28;20034;-91
2022/06/04 11:58:29;;;;;;;8.15;3.38;;;;;;;;;;4970029;28;20234;-91
2022/06/04 12:00:56;;;;;;;5.50;3.00;;;;;;;;;;4973662;28;20457;-91
2022/06/04 12:03:32;;;;;;;7.05;3.25;;;;;;;;;;4975490;28;20034;-92
2022/06/04 12:05:58;;;;;;;;;;;;;;;;;;4963912;28;20475;-92
2022/06/04 12:08:30;;;;;;;4.75;2.80;;;;;;;;;;4968433;28;19914;-93
2022/06/04 12:11:08;;;;;;;6.85;3.45;;;;;;;;;;4975886;28;20038;-91
2022/06/04 12:13:46;;;;;;;7.70;3.83;;;;;;;;;;4970011;28;20061;-91
2022/06/04 12:16:27;;;;;;;7.57;3.35;;;;;;;;;;4968830;28;20031;-90
2022/06/04 12:25:01;;;;;;;7.82;3.42;;;;;;;;;;4991337;28;20049;-93
2022/06/04 12:27:27;;;;;;;6.47;2.88;;;;;;;;;;4961715;28;20042;-89
2022/06/04 12:29:55;;;;;;;9.35;3.17;;;;;;;;;;4968709;28;20474;-90
2022/06/04 12:32:24;;;;;;;7.97;3.20;;;;;;;;;;4965560;28;20054;-89
2022/06/04 12:34:51;;;;;;;6.38;2.85;;;;;;;;;;4966411;28;20030;-91
2022/06/04 12:37:23;;;;;;;9.07;3.90;;;;;;;;;;4961298;28;20553;-90
2022/06/04 12:39:49;;;;;;;9.23;3.30;;;;;;;;;;4986979;28;20034;-92
2022/06/04 12:42:18;;;;;;;8.10;2.88;;;;;;;;;;4977007;28;20034;-94
2022/06/04 12:44:56;;;;;;;7.40;2.92;;;;;;;;;;4971211;28;20056;-92
2022/06/04 12:47:30;;;;;;;12.48;3.33;;;;;;;;;;4972703;28;20515;-93
2022/06/04 12:50:07;;;;;;;9.55;3.35;;;;;;;;;;4962484;28;20039;-94
2022/06/04 12:52:44;;;;;;;7.15;3.13;;;;;;;;;;4947048;28;20027;-93
2022/06/04 12:55:29;;;;;;;6.28;3.25;;;;;;;;;;4950007;28;20025;-93
2022/06/04 12:58:01;;;;;;;9.15;3.47;;;;;;;;;;4948212;28;20114;-90
2022/06/04 13:00:50;;;;;;;8.23;3.20;;;;;;;;;;4983560;28;20030;-92
2022/06/04 13:03:27;;;;;;;4.65;2.85;;;;;;;;;;4959483;28;20445;-90
2022/06/04 13:05:58;;;;;;;8.00;3.40;;;;;;;;;;4954259;28;20031;-90
2022/06/04 13:08:43;;;;;;;7.78;3.10;;;;;;;;;;4945117;28;20097;-91
2022/06/04 13:11:15;;;;;;;12.93;3.22;;;;;;;;;;4961083;28;20126;-92
2022/06/04 13:14:00;;;;;;;6.03;2.90;;;;;;;;;;4944267;28;20063;-92
2022/06/04 13:16:28;;;;;;;9.93;3.40;;;;;;;;;;4957461;28;20062;-91
2022/06/04 13:19:06;;;;;;;6.50;3.08;;;;;;;;;;4941932;28;20715;-92
2022/06/04 13:21:33;;;;;;;5.82;3.45;;;;;;;;;;4957589;28;20026;-91
2022/06/04 13:24:04;;;;;;;11.20;3.40;;;;;;;;;;4953144;28;20640;-91
2022/06/04 13:26:36;;;;;;;9.30;2.80;;;;;;;;;;4951573;28;20418;-92
2022/06/04 13:29:03;;;;;;;4.13;2.75;;;;;;;;;;4953164;28;20027;-91
2022/06/04 13:31:33;;;;;;;12.02;2.65;;;;;;;;;;4934397;28;20054;-90
2022/06/04 13:34:10;;;;;;;6.25;2.97;;;;;;;;;;4938920;28;20043;-93
2022/06/04 13:36:36;;;;;;;5.28;2.80;;;;;;;;;;4940888;28;20491;-91
2022/06/04 13:39:03;;;;;;;8.35;2.70;;;;;;;;;;4934936;28;20121;-92
2022/06/04 13:44:15;;;;;;;7.78;3.03;;;;;;;;;;4956673;28;20411;-89
2022/06/04 13:46:41;;;;;;;9.98;3.55;;;;;;;;;;4963475;28;20049;-91
2022/06/04 13:49:24;;;;;;;7.45;3.05;;;;;;;;;;4962523;28;20079;-91
2022/06/04 13:51:59;;;;;;;6.07;2.75;;;;;;;;;;4953471;28;20540;-90
2022/06/04 13:54:33;;;;;;;6.57;3.00;;;;;;;;;;4978291;28;20113;-92
2022/06/04 13:57:01;;;;;;;8.55;2.88;;;;;;;;;;4958624;28;20081;-92
2022/06/04 13:59:32;;;;;;;8.35;3.05;;;;;;;;;;4976525;28;20069;-92
2022/06/04 14:02:00;;;;;;;6.22;2.45;;;;;;;;;;4955634;28;20030;-91
2022/06/04 14:07:12;;;;;;;5.97;2.38;;;;;;;;;;4982035;28;20077;-91
2022/06/04 14:09:39;;;;;;;7.18;2.83;;;;;;;;;;4967953;28;20125;-91
2022/06/04 14:12:17;;;;;;;5.15;2.75;;;;;;;;;;4965352;28;20100;-91
2022/06/04 14:15:03;;;;;;;5.32;2.50;;;;;;;;;;4962297;28;20062;-90
2022/06/04 14:17:29;;;;;;;;;;;;;;;;;;4966610;28;20034;-92
2022/06/04 14:20:06;;;;;;;3.67;2.80;;;;;;;;;;4960710;28;20159;-91
2022/06/04 14:22:33;;;;;;;5.28;2.50;;;;;;;;;;4966700;28;20065;-90
2022/06/04 14:25:11;;;;;;;7.60;3.38;;;;;;;;;;4964907;28;20038;-90
2022/06/04 14:27:52;;;;;;;5.80;2.60;;;;;;;;;;4975477;28;20037;-92
2022/06/04 14:30:24;;;;;;;4.88;2.50;;;;;;;;;;4961784;28;20031;-90
2022/06/04 14:32:52;;;;;;;7.47;3.15;;;;;;;;;;4959698;28;20030;-91
2022/06/04 14:35:29;;;;;;;8.02;2.70;;;;;;;;;;4966341;28;20374;-91
2022/06/04 14:38:00;;;;;;;6.15;2.50;;;;;;;;;;4960332;28;20305;-90
2022/06/04 14:40:38;;;;;;;5.90;3.30;;;;;;;;;;4970836;28;20743;-90
2022/06/04 14:43:22;;;;;;;7.90;3.28;;;;;;;;;;4957461;28;20511;-91
2022/06/04 14:46:01;;;;;;;9.55;2.88;;;;;;;;;;4976368;28;20038;-91
2022/06/04 14:48:33;;;;;;;4.95;2.72;;;;;;;;;;4965380;28;20080;-91
2022/06/04 14:51:27;;;;;;;6.28;2.90;;;;;;;;;;4971575;28;20344;-89
2022/06/04 14:53:54;;;;;;;8.88;2.72;;;;;;;;;;4961282;28;20045;-92
2022/06/04 14:56:33;;;;;;;4.60;2.50;;;;;;;;;;4974002;28;20525;-90
2022/06/04 14:59:10;;;;;;;7.55;2.72;;;;;;;;;;4958359;28;20054;-92
2022/06/04 15:01:43;;;;;;;8.95;3.25;;;;;;;;;;4962323;28;20034;-90
2022/06/04 15:05:05;;;;;;;9.63;2.75;;;;;;;;;;4960771;28;20962;-89
2022/06/04 15:07:44;;;;;;;11.25;3.05;;;;;;;;;;4966257;28;20418;-89
2022/06/04 15:10:24;;;;;;;9.65;3.10;;;;;;;;;;4974355;28;20042;-89
2022/06/04 15:12:52;;;;;;;8.52;3.20;;;;;;;;;;4986442;28;20071;-89
2022/06/04 15:15:21;;;;;;;8.35;3.08;;;;;;;;;;4979629;28;20042;-89
2022/06/04 15:17:50;;;;;;;6.07;3.05;;;;;;;;;;4985769;28;20030;-89
2022/06/04 15:20:16;;;;;;;7.28;3.00;;;;;;;;;;4973266;28;20454;-91
2022/06/04 15:22:59;;;;;;;6.75;3.20;;;;;;;;;;4969330;28;20026;-89
2022/06/04 15:25:28;;;;;;;6.35;3.10;;;;;;;;;;4964054;28;20100;-91